sensor_id;sensor_type;location;lat;lon;timestamp;temperature;humidity
13074;DHT22;6603;47.066;15.396;2023-08-06T00:00:00;15.80;99.90
13074;DHT22;6603;47.066;15.396;2023-08-06T00:02:25;15.90;99.90
13074;DHT22;6603;47.066;15.396;2023-08-06T00:04:51;16.10;99.90
13074;DHT22;6603;47.066;15.396;2023-08-06T00:07:18;16.00;99.90
13074;DHT22;6603;47.066;15.396;2023-08-06T00:09:44;16.10;99.90
13074;DHT22;6603;47.066;15.396;2023-08-06T00:12:10;15.90;99.90
13074;DHT22;6603;47.066;15.396;2023-08-06T00:14:35;15.70;99.90
13074;DHT22;6603;47.066;15.396;2023-08-06T00:17:01;15.60;99.90
13074;DHT22;6603;47.066;15.396;2023-08-06T00:19:27;15.50;99.90
13074;DHT22;6603;47.066;15.396;2023-08-06T00:21:53;15.50;99.90
13074;DHT22;6603;47.066;15.396;2023-08-06T00:24:19;15.50;99.90
13074;DHT22;6603;47.066;15.396;2023-08-06T00:26:45;15.40;99.90
13074;DHT22;6603;47.066;15.396;2023-08-06T00:29:11;15.40;99.90
13074;DHT22;6603;47.066;15.396;2023-08-06T00:31:36;15.50;99.90
13074;DHT22;6603;47.066;15.396;2023-08-06T00:34:02;15.40;99.90
13074;DHT22;6603;47.066;15.396;2023-08-06T00:36:28;15.40;99.90
13074;DHT22;6603;47.066;15.396;2023-08-06T00:38:54;15.40;99.90
13074;DHT22;6603;47.066;15.396;2023-08-06T00:41:21;15.40;99.90
13074;DHT22;6603;47.066;15.396;2023-08-06T00:43:47;15.40;99.90
13074;DHT22;6603;47.066;15.396;2023-08-06T00:46:13;15.40;99.90
13074;DHT22;6603;47.066;15.396;2023-08-06T00:48:40;15.40;99.90
13074;DHT22;6603;47.066;15.396;2023-08-06T00:51:09;15.40;99.90
13074;DHT22;6603;47.066;15.396;2023-08-06T00:53:37;15.40;99.90
13074;DHT22;6603;47.066;15.396;2023-08-06T00:56:04;15.40;99.90
13074;DHT22;6603;47.066;15.396;2023-08-06T00:58:30;15.40;99.90
13074;DHT22;6603;47.066;15.396;2023-08-06T01:00:56;15.50;99.90
13074;DHT22;6603;47.066;15.396;2023-08-06T01:03:22;15.50;99.90
13074;DHT22;6603;47.066;15.396;2023-08-06T01:05:48;15.50;99.90
13074;DHT22;6603;47.066;15.396;2023-08-06T01:16:50;15.40;99.90
13074;DHT22;6603;47.066;15.396;2023-08-06T01:19:17;15.30;99.90
13074;DHT22;6603;47.066;15.396;2023-08-06T01:21:43;15.40;99.90
13074;DHT22;6603;47.066;15.396;2023-08-06T01:24:09;15.40;99.90
13074;DHT22;6603;47.066;15.396;2023-08-06T01:26:42;15.40;99.90
13074;DHT22;6603;47.066;15.396;2023-08-06T01:29:34;15.30;99.90
13074;DHT22;6603;47.066;15.396;2023-08-06T01:32:02;15.30;99.90
13074;DHT22;6603;47.066;15.396;2023-08-06T01:34:32;15.30;99.90
13074;DHT22;6603;47.066;15.396;2023-08-06T01:37:00;15.30;99.90
13074;DHT22;6603;47.066;15.396;2023-08-06T01:39:26;15.30;99.90
13074;DHT22;6603;47.066;15.396;2023-08-06T01:41:52;15.40;99.90
13074;DHT22;6603;47.066;15.396;2023-08-06T01:44:18;15.40;99.90
13074;DHT22;6603;47.066;15.396;2023-08-06T01:46:44;15.30;99.90
13074;DHT22;6603;47.066;15.396;2023-08-06T01:49:09;15.20;99.90
13074;DHT22;6603;47.066;15.396;2023-08-06T01:51:35;15.30;99.90
13074;DHT22;6603;47.066;15.396;2023-08-06T01:54:01;15.30;99.90
13074;DHT22;6603;47.066;15.396;2023-08-06T01:56:27;15.30;99.90
13074;DHT22;6603;47.066;15.396;2023-08-06T01:58:53;15.30;99.90
13074;DHT22;6603;47.066;15.396;2023-08-06T02:01:19;15.20;99.90
13074;DHT22;6603;47.066;15.396;2023-08-06T02:03:44;15.20;99.90
13074;DHT22;6603;47.066;15.396;2023-08-06T02:06:10;15.20;99.90
13074;DHT22;6603;47.066;15.396;2023-08-06T02:08:36;15.20;99.90
13074;DHT22;6603;47.066;15.396;2023-08-06T02:11:02;15.20;99.90
13074;DHT22;6603;47.066;15.396;2023-08-06T02:13:28;15.20;99.90
13074;DHT22;6603;47.066;15.396;2023-08-06T02:15:54;15.20;99.90
13074;DHT22;6603;47.066;15.396;2023-08-06T02:18:20;15.10;99.90
13074;DHT22;6603;47.066;15.396;2023-08-06T02:20:56;15.20;99.90
13074;DHT22;6603;47.066;15.396;2023-08-06T02:23:23;15.10;99.90
13074;DHT22;6603;47.066;15.396;2023-08-06T02:25:56;15.10;99.90
13074;DHT22;6603;47.066;15.396;2023-08-06T02:28:22;15.10;99.90
13074;DHT22;6603;47.066;15.396;2023-08-06T02:30:51;15.10;99.90
13074;DHT22;6603;47.066;15.396;2023-08-06T02:33:20;15.30;99.90
13074;DHT22;6603;47.066;15.396;2023-08-06T02:35:46;15.20;99.90
13074;DHT22;6603;47.066;15.396;2023-08-06T02:38:12;15.20;99.90
13074;DHT22;6603;47.066;15.396;2023-08-06T02:40:43;15.10;99.90
13074;DHT22;6603;47.066;15.396;2023-08-06T02:43:10;15.20;99.90
13074;DHT22;6603;47.066;15.396;2023-08-06T02:45:36;15.20;99.90
13074;DHT22;6603;47.066;15.396;2023-08-06T02:48:02;15.10;99.90
13074;DHT22;6603;47.066;15.396;2023-08-06T02:50:28;15.10;99.90
13074;DHT22;6603;47.066;15.396;2023-08-06T02:52:54;15.00;99.90
13074;DHT22;6603;47.066;15.396;2023-08-06T02:55:20;15.10;99.90
13074;DHT22;6603;47.066;15.396;2023-08-06T02:57:46;15.10;99.90
13074;DHT22;6603;47.066;15.396;2023-08-06T03:00:12;15.10;99.90
13074;DHT22;6603;47.066;15.396;2023-08-06T03:02:37;15.20;99.90
13074;DHT22;6603;47.066;15.396;2023-08-06T03:05:04;15.10;99.90
13074;DHT22;6603;47.066;15.396;2023-08-06T03:07:32;15.00;99.90
13074;DHT22;6603;47.066;15.396;2023-08-06T03:09:59;15.10;99.90
13074;DHT22;6603;47.066;15.396;2023-08-06T03:12:27;15.00;99.90
13074;DHT22;6603;47.066;15.396;2023-08-06T03:14:53;15.00;99.90
13074;DHT22;6603;47.066;15.396;2023-08-06T03:17:19;15.00;99.90
13074;DHT22;6603;47.066;15.396;2023-08-06T03:19:44;15.00;99.90
13074;DHT22;6603;47.066;15.396;2023-08-06T03:22:10;15.00;99.90
13074;DHT22;6603;47.066;15.396;2023-08-06T03:24:36;15.00;99.90
13074;DHT22;6603;47.066;15.396;2023-08-06T03:27:02;15.00;99.90
13074;DHT22;6603;47.066;15.396;2023-08-06T03:29:28;14.90;99.90
13074;DHT22;6603;47.066;15.396;2023-08-06T03:31:54;15.00;99.90
13074;DHT22;6603;47.066;15.396;2023-08-06T03:34:19;15.00;99.90
13074;DHT22;6603;47.066;15.396;2023-08-06T03:36:45;14.90;99.90
13074;DHT22;6603;47.066;15.396;2023-08-06T03:39:11;15.00;99.90
13074;DHT22;6603;47.066;15.396;2023-08-06T03:41:37;15.10;99.90
13074;DHT22;6603;47.066;15.396;2023-08-06T03:44:03;15.00;99.90
13074;DHT22;6603;47.066;15.396;2023-08-06T03:46:29;15.10;99.90
13074;DHT22;6603;47.066;15.396;2023-08-06T03:48:58;15.00;99.90
13074;DHT22;6603;47.066;15.396;2023-08-06T03:51:23;15.10;99.90
13074;DHT22;6603;47.066;15.396;2023-08-06T03:53:49;15.00;99.90
13074;DHT22;6603;47.066;15.396;2023-08-06T03:56:15;15.00;99.90
13074;DHT22;6603;47.066;15.396;2023-08-06T03:58:41;14.90;99.90
13074;DHT22;6603;47.066;15.396;2023-08-06T04:01:07;14.90;99.90
13074;DHT22;6603;47.066;15.396;2023-08-06T04:03:33;14.90;99.90
13074;DHT22;6603;47.066;15.396;2023-08-06T04:05:59;14.90;99.90
13074;DHT22;6603;47.066;15.396;2023-08-06T04:08:25;14.90;99.90
13074;DHT22;6603;47.066;15.396;2023-08-06T04:10:54;14.90;99.90
13074;DHT22;6603;47.066;15.396;2023-08-06T04:13:20;14.90;99.90
13074;DHT22;6603;47.066;15.396;2023-08-06T04:15:46;14.90;99.90
13074;DHT22;6603;47.066;15.396;2023-08-06T04:18:13;14.90;99.90
13074;DHT22;6603;47.066;15.396;2023-08-06T04:20:48;15.00;99.90
13074;DHT22;6603;47.066;15.396;2023-08-06T04:23:15;15.00;99.90
13074;DHT22;6603;47.066;15.396;2023-08-06T04:25:41;14.90;99.90
13074;DHT22;6603;47.066;15.396;2023-08-06T04:28:07;15.00;99.90
13074;DHT22;6603;47.066;15.396;2023-08-06T04:30:33;15.00;99.90
13074;DHT22;6603;47.066;15.396;2023-08-06T04:32:59;15.00;99.90
13074;DHT22;6603;47.066;15.396;2023-08-06T04:35:25;15.10;99.90
13074;DHT22;6603;47.066;15.396;2023-08-06T04:37:51;15.10;99.90
13074;DHT22;6603;47.066;15.396;2023-08-06T04:40:17;15.10;99.90
13074;DHT22;6603;47.066;15.396;2023-08-06T04:42:43;15.00;99.90
13074;DHT22;6603;47.066;15.396;2023-08-06T04:45:09;15.20;99.90
13074;DHT22;6603;47.066;15.396;2023-08-06T04:47:34;15.10;99.90
13074;DHT22;6603;47.066;15.396;2023-08-06T04:50:00;15.10;99.90
13074;DHT22;6603;47.066;15.396;2023-08-06T04:52:27;15.20;99.90
13074;DHT22;6603;47.066;15.396;2023-08-06T04:54:56;15.10;99.90
13074;DHT22;6603;47.066;15.396;2023-08-06T04:57:22;15.10;99.90
13074;DHT22;6603;47.066;15.396;2023-08-06T04:59:48;15.10;99.90
13074;DHT22;6603;47.066;15.396;2023-08-06T05:02:14;15.20;99.90
13074;DHT22;6603;47.066;15.396;2023-08-06T05:04:40;15.20;99.90
13074;DHT22;6603;47.066;15.396;2023-08-06T05:07:06;15.30;99.90
13074;DHT22;6603;47.066;15.396;2023-08-06T05:09:32;15.20;99.90
13074;DHT22;6603;47.066;15.396;2023-08-06T05:12:01;15.10;99.90
13074;DHT22;6603;47.066;15.396;2023-08-06T05:14:27;15.20;99.90
13074;DHT22;6603;47.066;15.396;2023-08-06T05:16:53;15.30;99.90
13074;DHT22;6603;47.066;15.396;2023-08-06T05:19:19;15.30;99.90
13074;DHT22;6603;47.066;15.396;2023-08-06T05:21:45;15.40;99.90
13074;DHT22;6603;47.066;15.396;2023-08-06T05:24:11;15.30;99.90
13074;DHT22;6603;47.066;15.396;2023-08-06T05:26:37;15.40;99.90
13074;DHT22;6603;47.066;15.396;2023-08-06T05:29:03;15.40;99.90
13074;DHT22;6603;47.066;15.396;2023-08-06T05:31:29;15.30;99.90
13074;DHT22;6603;47.066;15.396;2023-08-06T05:33:55;15.30;99.90
13074;DHT22;6603;47.066;15.396;2023-08-06T05:36:21;15.30;99.90
13074;DHT22;6603;47.066;15.396;2023-08-06T05:38:47;15.40;99.90
13074;DHT22;6603;47.066;15.396;2023-08-06T05:41:13;15.40;99.90
13074;DHT22;6603;47.066;15.396;2023-08-06T05:43:39;15.40;99.90
13074;DHT22;6603;47.066;15.396;2023-08-06T05:46:05;15.40;99.90
13074;DHT22;6603;47.066;15.396;2023-08-06T05:48:31;15.50;99.90
13074;DHT22;6603;47.066;15.396;2023-08-06T05:51:00;15.50;99.90
13074;DHT22;6603;47.066;15.396;2023-08-06T05:53:26;15.60;99.90
13074;DHT22;6603;47.066;15.396;2023-08-06T05:55:52;15.60;99.90
13074;DHT22;6603;47.066;15.396;2023-08-06T05:58:18;15.60;99.90
13074;DHT22;6603;47.066;15.396;2023-08-06T06:00:45;15.70;99.90
13074;DHT22;6603;47.066;15.396;2023-08-06T06:03:11;15.70;99.90
13074;DHT22;6603;47.066;15.396;2023-08-06T06:05:38;15.70;99.90
13074;DHT22;6603;47.066;15.396;2023-08-06T06:08:04;15.80;99.90
13074;DHT22;6603;47.066;15.396;2023-08-06T06:10:30;15.80;99.90
13074;DHT22;6603;47.066;15.396;2023-08-06T06:12:57;15.80;99.90
13074;DHT22;6603;47.066;15.396;2023-08-06T06:15:22;15.80;99.90
13074;DHT22;6603;47.066;15.396;2023-08-06T06:17:48;15.80;99.90
13074;DHT22;6603;47.066;15.396;2023-08-06T06:20:14;15.90;99.90
13074;DHT22;6603;47.066;15.396;2023-08-06T06:22:40;15.90;99.90
13074;DHT22;6603;47.066;15.396;2023-08-06T06:25:06;16.00;99.90
13074;DHT22;6603;47.066;15.396;2023-08-06T06:27:32;16.00;99.90
13074;DHT22;6603;47.066;15.396;2023-08-06T06:29:58;16.10;99.90
13074;DHT22;6603;47.066;15.396;2023-08-06T06:32:24;16.10;99.90
13074;DHT22;6603;47.066;15.396;2023-08-06T06:34:49;16.10;99.90
13074;DHT22;6603;47.066;15.396;2023-08-06T06:37:15;16.20;99.90
13074;DHT22;6603;47.066;15.396;2023-08-06T06:39:41;16.30;99.90
13074;DHT22;6603;47.066;15.396;2023-08-06T06:42:07;16.30;99.90
13074;DHT22;6603;47.066;15.396;2023-08-06T06:44:33;16.40;99.90
13074;DHT22;6603;47.066;15.396;2023-08-06T06:46:59;16.30;99.90
13074;DHT22;6603;47.066;15.396;2023-08-06T06:49:25;16.30;99.90
13074;DHT22;6603;47.066;15.396;2023-08-06T06:51:51;16.30;99.90
13074;DHT22;6603;47.066;15.396;2023-08-06T06:54:17;16.20;99.90
13074;DHT22;6603;47.066;15.396;2023-08-06T06:56:42;16.30;99.90
13074;DHT22;6603;47.066;15.396;2023-08-06T06:59:08;16.40;99.90
13074;DHT22;6603;47.066;15.396;2023-08-06T07:01:34;16.40;99.90
13074;DHT22;6603;47.066;15.396;2023-08-06T07:04:00;16.30;99.90
13074;DHT22;6603;47.066;15.396;2023-08-06T07:06:31;16.40;99.90
13074;DHT22;6603;47.066;15.396;2023-08-06T07:08:57;16.40;99.90
13074;DHT22;6603;47.066;15.396;2023-08-06T07:11:23;16.20;99.90
13074;DHT22;6603;47.066;15.396;2023-08-06T07:13:49;16.30;99.90
13074;DHT22;6603;47.066;15.396;2023-08-06T07:16:15;16.30;99.90
13074;DHT22;6603;47.066;15.396;2023-08-06T07:18:41;16.30;99.90
13074;DHT22;6603;47.066;15.396;2023-08-06T07:21:07;16.50;99.90
13074;DHT22;6603;47.066;15.396;2023-08-06T07:23:33;16.50;99.90
13074;DHT22;6603;47.066;15.396;2023-08-06T07:25:59;16.60;99.90
13074;DHT22;6603;47.066;15.396;2023-08-06T07:28:24;16.50;99.90
13074;DHT22;6603;47.066;15.396;2023-08-06T07:30:50;16.50;99.90
13074;DHT22;6603;47.066;15.396;2023-08-06T07:33:16;16.60;99.90
13074;DHT22;6603;47.066;15.396;2023-08-06T07:35:42;16.60;99.90
13074;DHT22;6603;47.066;15.396;2023-08-06T07:38:09;16.60;99.90
13074;DHT22;6603;47.066;15.396;2023-08-06T07:40:36;16.70;99.90
13074;DHT22;6603;47.066;15.396;2023-08-06T07:43:05;16.70;99.90
13074;DHT22;6603;47.066;15.396;2023-08-06T07:45:34;16.70;99.90
13074;DHT22;6603;47.066;15.396;2023-08-06T07:48:02;16.70;99.90
13074;DHT22;6603;47.066;15.396;2023-08-06T07:50:28;16.70;99.90
13074;DHT22;6603;47.066;15.396;2023-08-06T07:52:54;16.70;99.90
13074;DHT22;6603;47.066;15.396;2023-08-06T07:55:20;16.70;99.90
13074;DHT22;6603;47.066;15.396;2023-08-06T07:57:45;16.70;99.90
13074;DHT22;6603;47.066;15.396;2023-08-06T08:00:11;16.80;99.90
13074;DHT22;6603;47.066;15.396;2023-08-06T08:02:37;16.90;99.90
13074;DHT22;6603;47.066;15.396;2023-08-06T08:05:03;16.80;99.90
13074;DHT22;6603;47.066;15.396;2023-08-06T08:07:28;16.90;99.90
13074;DHT22;6603;47.066;15.396;2023-08-06T08:09:56;16.90;99.90
13074;DHT22;6603;47.066;15.396;2023-08-06T08:12:23;17.10;99.90
13074;DHT22;6603;47.066;15.396;2023-08-06T08:14:48;17.10;99.90
13074;DHT22;6603;47.066;15.396;2023-08-06T08:17:14;17.10;99.90
13074;DHT22;6603;47.066;15.396;2023-08-06T08:19:40;17.20;99.90
13074;DHT22;6603;47.066;15.396;2023-08-06T08:22:06;17.30;99.90
13074;DHT22;6603;47.066;15.396;2023-08-06T08:24:32;17.40;99.90
13074;DHT22;6603;47.066;15.396;2023-08-06T08:26:58;17.50;99.90
13074;DHT22;6603;47.066;15.396;2023-08-06T08:29:24;17.60;99.90
13074;DHT22;6603;47.066;15.396;2023-08-06T08:31:49;17.50;99.90
13074;DHT22;6603;47.066;15.396;2023-08-06T08:34:18;17.60;99.90
13074;DHT22;6603;47.066;15.396;2023-08-06T08:36:44;17.60;99.90
13074;DHT22;6603;47.066;15.396;2023-08-06T08:39:13;17.60;99.90
13074;DHT22;6603;47.066;15.396;2023-08-06T08:41:39;17.60;99.90
13074;DHT22;6603;47.066;15.396;2023-08-06T08:44:08;17.70;99.90
13074;DHT22;6603;47.066;15.396;2023-08-06T08:46:38;17.70;99.90
13074;DHT22;6603;47.066;15.396;2023-08-06T08:49:05;17.70;99.90
13074;DHT22;6603;47.066;15.396;2023-08-06T08:51:33;17.70;99.90
13074;DHT22;6603;47.066;15.396;2023-08-06T08:54:04;17.70;99.90
13074;DHT22;6603;47.066;15.396;2023-08-06T08:56:31;17.70;99.90
13074;DHT22;6603;47.066;15.396;2023-08-06T08:58:57;17.70;99.90
13074;DHT22;6603;47.066;15.396;2023-08-06T09:01:23;17.70;99.90
13074;DHT22;6603;47.066;15.396;2023-08-06T09:03:50;17.70;99.90
13074;DHT22;6603;47.066;15.396;2023-08-06T09:06:19;17.70;99.90
13074;DHT22;6603;47.066;15.396;2023-08-06T09:09:17;17.70;99.90
13074;DHT22;6603;47.066;15.396;2023-08-06T09:11:44;17.70;99.90
13074;DHT22;6603;47.066;15.396;2023-08-06T09:14:11;17.70;99.90
13074;DHT22;6603;47.066;15.396;2023-08-06T09:16:38;17.80;99.90
13074;DHT22;6603;47.066;15.396;2023-08-06T09:19:11;17.70;99.90
13074;DHT22;6603;47.066;15.396;2023-08-06T09:21:39;17.80;99.90
13074;DHT22;6603;47.066;15.396;2023-08-06T09:24:12;17.80;99.90
13074;DHT22;6603;47.066;15.396;2023-08-06T09:26:40;17.80;99.90
13074;DHT22;6603;47.066;15.396;2023-08-06T09:29:08;17.80;99.90
13074;DHT22;6603;47.066;15.396;2023-08-06T09:31:47;17.80;99.90
13074;DHT22;6603;47.066;15.396;2023-08-06T09:34:18;17.90;99.90
13074;DHT22;6603;47.066;15.396;2023-08-06T09:36:51;17.90;99.90
13074;DHT22;6603;47.066;15.396;2023-08-06T09:39:19;18.00;99.90
13074;DHT22;6603;47.066;15.396;2023-08-06T09:41:47;18.10;99.90
13074;DHT22;6603;47.066;15.396;2023-08-06T09:44:17;18.20;99.90
13074;DHT22;6603;47.066;15.396;2023-08-06T09:46:54;18.30;99.90
13074;DHT22;6603;47.066;15.396;2023-08-06T09:49:41;18.50;99.90
13074;DHT22;6603;47.066;15.396;2023-08-06T09:52:14;18.40;99.90
13074;DHT22;6603;47.066;15.396;2023-08-06T09:54:43;18.60;99.90
13074;DHT22;6603;47.066;15.396;2023-08-06T09:57:09;18.60;99.90
13074;DHT22;6603;47.066;15.396;2023-08-06T09:59:39;18.60;99.90
13074;DHT22;6603;47.066;15.396;2023-08-06T10:02:14;18.80;99.90
13074;DHT22;6603;47.066;15.396;2023-08-06T10:04:39;18.80;99.90
13074;DHT22;6603;47.066;15.396;2023-08-06T10:07:06;19.00;99.90
13074;DHT22;6603;47.066;15.396;2023-08-06T10:09:32;19.00;99.90
13074;DHT22;6603;47.066;15.396;2023-08-06T10:12:00;19.20;99.90
13074;DHT22;6603;47.066;15.396;2023-08-06T10:14:30;19.30;99.90
13074;DHT22;6603;47.066;15.396;2023-08-06T10:17:02;19.80;99.90
13074;DHT22;6603;47.066;15.396;2023-08-06T10:19:29;20.00;99.90
13074;DHT22;6603;47.066;15.396;2023-08-06T10:22:12;20.00;90.80
13074;DHT22;6603;47.066;15.396;2023-08-06T10:24:58;20.00;99.90
13074;DHT22;6603;47.066;15.396;2023-08-06T10:27:35;20.30;99.90
13074;DHT22;6603;47.066;15.396;2023-08-06T10:30:27;20.50;99.90
13074;DHT22;6603;47.066;15.396;2023-08-06T10:32:58;20.50;99.90
13074;DHT22;6603;47.066;15.396;2023-08-06T10:35:32;20.60;99.90
13074;DHT22;6603;47.066;15.396;2023-08-06T10:38:22;20.70;99.90
13074;DHT22;6603;47.066;15.396;2023-08-06T10:43:33;20.80;99.90
13074;DHT22;6603;47.066;15.396;2023-08-06T10:46:01;20.80;99.90
13074;DHT22;6603;47.066;15.396;2023-08-06T10:48:34;21.00;86.90
13074;DHT22;6603;47.066;15.396;2023-08-06T10:51:01;20.90;93.20
13074;DHT22;6603;47.066;15.396;2023-08-06T10:53:27;21.00;54.70
13074;DHT22;6603;47.066;15.396;2023-08-06T10:55:54;21.10;92.00
13074;DHT22;6603;47.066;15.396;2023-08-06T10:58:20;21.20;27.50
13074;DHT22;6603;47.066;15.396;2023-08-06T11:00:46;21.20;31.50
13074;DHT22;6603;47.066;15.396;2023-08-06T11:03:12;21.10;1.00
13074;DHT22;6603;47.066;15.396;2023-08-06T11:05:39;20.90;1.00
13074;DHT22;6603;47.066;15.396;2023-08-06T11:08:04;21.10;1.00
13074;DHT22;6603;47.066;15.396;2023-08-06T11:10:33;21.00;1.00
13074;DHT22;6603;47.066;15.396;2023-08-06T11:13:06;21.30;70.30
13074;DHT22;6603;47.066;15.396;2023-08-06T11:15:33;21.40;1.00
13074;DHT22;6603;47.066;15.396;2023-08-06T11:17:59;21.40;1.00
13074;DHT22;6603;47.066;15.396;2023-08-06T11:20:27;21.70;1.00
13074;DHT22;6603;47.066;15.396;2023-08-06T11:22:54;21.70;1.00
13074;DHT22;6603;47.066;15.396;2023-08-06T11:25:20;21.90;99.90
13074;DHT22;6603;47.066;15.396;2023-08-06T11:27:47;22.20;1.00
13074;DHT22;6603;47.066;15.396;2023-08-06T11:30:14;21.90;1.00
13074;DHT22;6603;47.066;15.396;2023-08-06T11:32:47;22.00;99.90
13074;DHT22;6603;47.066;15.396;2023-08-06T11:35:14;21.70;1.00
13074;DHT22;6603;47.066;15.396;2023-08-06T11:37:45;22.10;1.00
13074;DHT22;6603;47.066;15.396;2023-08-06T11:40:12;22.20;1.00
13074;DHT22;6603;47.066;15.396;2023-08-06T11:42:40;22.40;99.90
13074;DHT22;6603;47.066;15.396;2023-08-06T11:45:06;22.50;99.90
13074;DHT22;6603;47.066;15.396;2023-08-06T11:47:34;22.40;1.00
13074;DHT22;6603;47.066;15.396;2023-08-06T11:50:03;22.30;99.90
13074;DHT22;6603;47.066;15.396;2023-08-06T11:52:31;22.10;1.00
13074;DHT22;6603;47.066;15.396;2023-08-06T11:55:07;22.30;77.90
13074;DHT22;6603;47.066;15.396;2023-08-06T11:57:36;22.40;1.00
13074;DHT22;6603;47.066;15.396;2023-08-06T12:00:04;22.40;1.00
13074;DHT22;6603;47.066;15.396;2023-08-06T12:02:34;22.60;1.00
13074;DHT22;6603;47.066;15.396;2023-08-06T12:05:16;22.80;99.90
13074;DHT22;6603;47.066;15.396;2023-08-06T12:07:56;23.00;99.90
13074;DHT22;6603;47.066;15.396;2023-08-06T12:10:26;23.10;1.00
13074;DHT22;6603;47.066;15.396;2023-08-06T12:12:53;22.80;1.00
13074;DHT22;6603;47.066;15.396;2023-08-06T12:15:19;22.60;1.00
13074;DHT22;6603;47.066;15.396;2023-08-06T12:17:45;22.40;99.90
13074;DHT22;6603;47.066;15.396;2023-08-06T12:20:11;22.60;1.00
13074;DHT22;6603;47.066;15.396;2023-08-06T12:22:38;23.00;40.70
13074;DHT22;6603;47.066;15.396;2023-08-06T12:25:12;23.20;1.00
13074;DHT22;6603;47.066;15.396;2023-08-06T12:27:39;23.10;1.00
13074;DHT22;6603;47.066;15.396;2023-08-06T12:30:06;23.00;1.00
13074;DHT22;6603;47.066;15.396;2023-08-06T12:32:33;22.70;1.00
13074;DHT22;6603;47.066;15.396;2023-08-06T12:34:58;22.50;1.00
13074;DHT22;6603;47.066;15.396;2023-08-06T12:37:25;22.70;99.90
13074;DHT22;6603;47.066;15.396;2023-08-06T12:39:50;22.70;99.90
13074;DHT22;6603;47.066;15.396;2023-08-06T12:42:16;22.60;99.90
13074;DHT22;6603;47.066;15.396;2023-08-06T12:44:42;22.40;99.90
13074;DHT22;6603;47.066;15.396;2023-08-06T12:47:08;22.60;99.90
13074;DHT22;6603;47.066;15.396;2023-08-06T12:49:34;22.40;99.90
13074;DHT22;6603;47.066;15.396;2023-08-06T12:52:10;22.30;99.90
13074;DHT22;6603;47.066;15.396;2023-08-06T12:54:38;22.20;1.00
13074;DHT22;6603;47.066;15.396;2023-08-06T12:57:07;22.00;99.90
13074;DHT22;6603;47.066;15.396;2023-08-06T12:59:33;22.30;99.90
13074;DHT22;6603;47.066;15.396;2023-08-06T13:02:01;22.40;1.00
13074;DHT22;6603;47.066;15.396;2023-08-06T13:04:28;23.00;99.90
13074;DHT22;6603;47.066;15.396;2023-08-06T13:06:54;23.20;99.90
13074;DHT22;6603;47.066;15.396;2023-08-06T13:09:19;23.40;16.60
13074;DHT22;6603;47.066;15.396;2023-08-06T13:11:45;22.90;1.00
13074;DHT22;6603;47.066;15.396;2023-08-06T13:14:14;23.00;1.00
13074;DHT22;6603;47.066;15.396;2023-08-06T13:16:42;23.30;1.00
13074;DHT22;6603;47.066;15.396;2023-08-06T13:19:08;23.70;1.00
13074;DHT22;6603;47.066;15.396;2023-08-06T13:24:06;23.50;1.00
13074;DHT22;6603;47.066;15.396;2023-08-06T13:26:32;23.60;1.00
13074;DHT22;6603;47.066;15.396;2023-08-06T13:28:59;23.60;1.00
13074;DHT22;6603;47.066;15.396;2023-08-06T13:31:26;23.70;1.00
13074;DHT22;6603;47.066;15.396;2023-08-06T13:33:52;23.80;1.00
13074;DHT22;6603;47.066;15.396;2023-08-06T13:36:21;23.90;1.00
13074;DHT22;6603;47.066;15.396;2023-08-06T13:38:47;24.20;1.00
13074;DHT22;6603;47.066;15.396;2023-08-06T13:41:12;24.60;54.10
13074;DHT22;6603;47.066;15.396;2023-08-06T13:43:39;24.70;29.60
13074;DHT22;6603;47.066;15.396;2023-08-06T13:46:05;24.40;1.00
13074;DHT22;6603;47.066;15.396;2023-08-06T13:48:31;24.20;1.00
13074;DHT22;6603;47.066;15.396;2023-08-06T13:50:57;23.80;1.00
13074;DHT22;6603;47.066;15.396;2023-08-06T13:53:23;23.40;1.00
13074;DHT22;6603;47.066;15.396;2023-08-06T13:55:51;23.00;1.00
13074;DHT22;6603;47.066;15.396;2023-08-06T13:58:16;23.00;1.00
13074;DHT22;6603;47.066;15.396;2023-08-06T14:00:42;22.80;1.00
13074;DHT22;6603;47.066;15.396;2023-08-06T14:03:08;22.80;1.00
13074;DHT22;6603;47.066;15.396;2023-08-06T14:05:34;22.70;1.00
13074;DHT22;6603;47.066;15.396;2023-08-06T14:08:00;22.60;1.00
13074;DHT22;6603;47.066;15.396;2023-08-06T14:10:26;22.50;1.00
13074;DHT22;6603;47.066;15.396;2023-08-06T14:12:52;22.40;1.00
13074;DHT22;6603;47.066;15.396;2023-08-06T14:15:17;22.30;1.00
13074;DHT22;6603;47.066;15.396;2023-08-06T14:17:43;22.20;21.00
13074;DHT22;6603;47.066;15.396;2023-08-06T14:20:10;22.20;95.30
13074;DHT22;6603;47.066;15.396;2023-08-06T14:22:37;22.30;80.50
13074;DHT22;6603;47.066;15.396;2023-08-06T14:25:04;22.40;99.90
13074;DHT22;6603;47.066;15.396;2023-08-06T14:27:30;22.50;99.90
13074;DHT22;6603;47.066;15.396;2023-08-06T14:29:55;22.60;1.00
13074;DHT22;6603;47.066;15.396;2023-08-06T14:32:21;22.80;99.90
13074;DHT22;6603;47.066;15.396;2023-08-06T14:34:47;22.80;99.90
13074;DHT22;6603;47.066;15.396;2023-08-06T14:37:13;22.50;99.90
13074;DHT22;6603;47.066;15.396;2023-08-06T14:39:38;22.80;99.90
13074;DHT22;6603;47.066;15.396;2023-08-06T14:42:05;23.20;1.00
13074;DHT22;6603;47.066;15.396;2023-08-06T14:44:31;23.40;1.00
13074;DHT22;6603;47.066;15.396;2023-08-06T14:46:56;23.60;1.00
13074;DHT22;6603;47.066;15.396;2023-08-06T14:49:23;23.40;1.00
13074;DHT22;6603;47.066;15.396;2023-08-06T14:51:49;24.00;1.00
13074;DHT22;6603;47.066;15.396;2023-08-06T14:54:15;24.40;1.00
13074;DHT22;6603;47.066;15.396;2023-08-06T14:56:41;24.30;1.00
13074;DHT22;6603;47.066;15.396;2023-08-06T14:59:07;24.10;1.00
13074;DHT22;6603;47.066;15.396;2023-08-06T15:01:32;24.10;1.00
13074;DHT22;6603;47.066;15.396;2023-08-06T15:03:59;23.70;1.00
13074;DHT22;6603;47.066;15.396;2023-08-06T15:06:24;23.70;1.00
13074;DHT22;6603;47.066;15.396;2023-08-06T15:08:50;23.40;1.00
13074;DHT22;6603;47.066;15.396;2023-08-06T15:11:16;23.30;1.00
13074;DHT22;6603;47.066;15.396;2023-08-06T15:13:42;23.40;1.00
13074;DHT22;6603;47.066;15.396;2023-08-06T15:16:07;23.80;1.00
13074;DHT22;6603;47.066;15.396;2023-08-06T15:18:33;24.00;1.00
13074;DHT22;6603;47.066;15.396;2023-08-06T15:20:59;24.10;1.00
13074;DHT22;6603;47.066;15.396;2023-08-06T15:23:25;23.90;1.00
13074;DHT22;6603;47.066;15.396;2023-08-06T15:25:51;23.60;1.00
13074;DHT22;6603;47.066;15.396;2023-08-06T15:28:17;24.10;1.00
13074;DHT22;6603;47.066;15.396;2023-08-06T15:30:50;24.40;1.00
13074;DHT22;6603;47.066;15.396;2023-08-06T15:33:18;24.70;1.00
13074;DHT22;6603;47.066;15.396;2023-08-06T15:35:43;24.30;1.00
13074;DHT22;6603;47.066;15.396;2023-08-06T15:38:09;24.10;1.00
13074;DHT22;6603;47.066;15.396;2023-08-06T15:40:35;24.20;1.00
13074;DHT22;6603;47.066;15.396;2023-08-06T15:43:02;23.90;1.00
13074;DHT22;6603;47.066;15.396;2023-08-06T15:45:28;23.90;1.00
13074;DHT22;6603;47.066;15.396;2023-08-06T15:47:54;24.50;1.00